createdAt,value
2023-04-02T00:01:04.068Z,14.60
2023-04-02T00:03:42.723Z,13.50
2023-04-02T00:06:32.499Z,12.07
2023-04-02T00:09:21.556Z,16.50
2023-04-02T00:11:49.249Z,15.43
2023-04-02T00:14:21.450Z,15.40
2023-04-02T00:16:48.263Z,13.68
2023-04-02T00:19:33.556Z,19.48
2023-04-02T00:22:00.412Z,16.65
2023-04-02T00:24:26.853Z,11.57
2023-04-02T00:26:53.701Z,19.05
2023-04-02T00:29:20.249Z,16.50
2023-04-02T00:31:48.481Z,10.50
2023-04-02T00:34:27.897Z,18.15
2023-04-02T00:36:54.371Z,16.92
2023-04-02T00:39:25.766Z,14.45
2023-04-02T00:42:05.026Z,14.68
2023-04-02T00:44:32.979Z,18.70
2023-04-02T00:47:03.610Z,18.83
2023-04-02T00:49:34.899Z,17.05
2023-04-02T00:52:22.129Z,17.38
2023-04-02T00:54:50.691Z,14.63
2023-04-02T00:57:25.565Z,18.63
2023-04-02T00:59:57.052Z,18.63
2023-04-02T01:02:26.487Z,20.15
2023-04-02T01:05:04.027Z,11.73
2023-04-02T01:07:43.842Z,13.75
2023-04-02T01:10:22.776Z,16.15
2023-04-02T01:13:09.790Z,9.48
2023-04-02T01:15:45.579Z,13.07
2023-04-02T01:18:31.415Z,13.07
2023-04-02T01:21:21.842Z,11.25
2023-04-02T01:24:02.110Z,19.75
2023-04-02T01:26:34.889Z,15.05
2023-04-02T01:31:28.350Z,11.73
2023-04-02T01:33:55.338Z,20.45
2023-04-02T01:36:28.084Z,14.80
2023-04-02T01:39:18.205Z,10.15
2023-04-02T01:41:49.181Z,10.55
2023-04-02T01:44:21.345Z,12.63
2023-04-02T01:46:48.360Z,13.20
2023-04-02T01:49:16.066Z,11.10
2023-04-02T01:51:44.144Z,9.98
2023-04-02T01:54:12.891Z,11.85
2023-04-02T01:56:40.599Z,14.50
2023-04-02T01:59:07.119Z,16.13
2023-04-02T02:01:40.257Z,12.57
2023-04-02T02:04:07.341Z,15.07
2023-04-02T02:06:33.688Z,16.40
2023-04-02T02:09:03.617Z,14.73
2023-04-02T02:11:31.072Z,11.10
2023-04-02T02:13:57.515Z,10.52
2023-04-02T02:16:24.357Z,15.48
2023-04-02T02:18:56.045Z,12.02
2023-04-02T02:21:29.822Z,14.10
2023-04-02T02:23:56.931Z,15.77
2023-04-02T02:26:24.103Z,17.08
2023-04-02T02:28:52.747Z,16.17
2023-04-02T02:31:22.522Z,6.95
2023-04-02T02:33:53.606Z,8.77
2023-04-02T02:36:24.092Z,13.98
2023-04-02T02:38:56.704Z,13.07
2023-04-02T02:41:41.520Z,7.93
2023-04-02T02:44:08.773Z,14.85
2023-04-02T02:46:41.547Z,13.50
2023-04-02T02:49:13.253Z,10.80
2023-04-02T02:51:43.796Z,12.15
2023-04-02T02:54:14.814Z,9.57
2023-04-02T02:56:43.556Z,18.90
2023-04-02T02:59:11.364Z,14.35
2023-04-02T03:01:41.529Z,15.32
2023-04-02T03:04:08.075Z,12.23
2023-04-02T03:06:36.716Z,12.35
2023-04-02T03:09:17.466Z,9.00
2023-04-02T03:11:44.243Z,10.65
2023-04-02T03:14:20.347Z,8.38
2023-04-02T03:16:49.061Z,8.83
2023-04-02T03:19:29.173Z,9.27
2023-04-02T03:22:03.396Z,10.70
2023-04-02T03:24:52.342Z,12.65
2023-04-02T03:27:21.173Z,12.27
2023-04-02T03:30:11.028Z,9.63
2023-04-02T03:32:38.862Z,10.30
2023-04-02T03:35:16.792Z,10.32
2023-04-02T03:37:46.961Z,7.97
2023-04-02T03:40:25.325Z,9.50
2023-04-02T03:42:59.184Z,10.93
2023-04-02T03:45:33.535Z,10.35
2023-04-02T03:48:06.420Z,8.07
2023-04-02T03:53:01.468Z,10.13
2023-04-02T03:55:33.733Z,9.38
2023-04-02T03:58:07.076Z,12.05
2023-04-02T04:00:45.386Z,8.82
2023-04-02T04:03:17.891Z,12.05
2023-04-02T04:05:48.256Z,8.23
2023-04-02T04:08:17.575Z,7.45
2023-04-02T04:10:44.238Z,7.38
2023-04-02T04:13:15.601Z,7.88
2023-04-02T04:15:54.424Z,17.27
2023-04-02T04:18:43.722Z,7.25
2023-04-02T04:21:29.889Z,5.87
2023-04-02T04:24:05.891Z,7.32
2023-04-02T04:29:09.679Z,6.13
2023-04-02T04:31:50.493Z,7.53
2023-04-02T04:34:22.913Z,4.78
2023-04-02T04:36:55.856Z,6.43
2023-04-02T04:39:34.792Z,7.55
2023-04-02T04:42:03.172Z,5.75
2023-04-02T04:44:40.523Z,11.20
2023-04-02T04:47:09.906Z,5.53
2023-04-02T04:49:41.663Z,6.97
2023-04-02T04:52:23.853Z,8.25
2023-04-02T04:54:50.867Z,7.15
2023-04-02T04:57:33.060Z,5.45
2023-04-02T05:00:27.288Z,7.22
2023-04-02T05:03:01.867Z,8.27
2023-04-02T05:05:30.464Z,4.70
2023-04-02T05:08:04.165Z,3.50
2023-04-02T05:10:39.053Z,4.77
2023-04-02T05:13:07.858Z,6.25
2023-04-02T05:15:35.072Z,4.13
2023-04-02T05:18:07.496Z,9.10
2023-04-02T05:20:54.148Z,6.60
2023-04-02T05:23:31.100Z,5.85
2023-04-02T05:26:08.696Z,2.50
2023-04-02T05:28:42.502Z,5.65
2023-04-02T05:31:12.451Z,3.65
2023-04-02T05:33:40.405Z,5.32
2023-04-02T05:36:18.197Z,10.77
2023-04-02T05:38:51.127Z,4.18
2023-04-02T05:41:39.209Z,4.25
2023-04-02T05:44:07.262Z,4.32
2023-04-02T05:46:43.670Z,4.60
2023-04-02T05:49:16.086Z,6.43
2023-04-02T05:51:45.685Z,6.20
2023-04-02T05:54:23.211Z,2.60
2023-04-02T05:57:03.390Z,4.80
2023-04-02T05:59:34.098Z,4.53
2023-04-02T06:02:14.961Z,6.63
2023-04-02T06:05:17.329Z,9.75
2023-04-02T06:07:45.097Z,3.83
2023-04-02T06:10:24.824Z,7.00
2023-04-02T06:12:54.415Z,5.78
2023-04-02T06:15:22.628Z,5.43
2023-04-02T06:18:01.042Z,5.10
2023-04-02T06:20:27.470Z,3.17
2023-04-02T06:23:02.276Z,4.47
2023-04-02T06:25:56.364Z,5.63
2023-04-02T06:28:28.608Z,5.72
2023-04-02T06:30:58.036Z,6.40
2023-04-02T06:33:25.069Z,8.05
2023-04-02T06:35:52.238Z,3.90
2023-04-02T06:38:28.431Z,5.43
2023-04-02T06:41:01.134Z,7.32
2023-04-02T06:43:43.320Z,8.27
2023-04-02T06:46:32.688Z,6.65
2023-04-02T06:49:23.122Z,4.47
2023-04-02T06:51:53.354Z,8.25
2023-04-02T06:54:20.327Z,3.58
2023-04-02T06:56:52.519Z,7.68
2023-04-02T06:59:33.368Z,4.70
2023-04-02T07:02:06.399Z,7.45
2023-04-02T07:04:33.336Z,5.93
2023-04-02T07:06:59.745Z,5.75
2023-04-02T07:09:30.032Z,5.50
2023-04-02T07:11:59.509Z,7.03
2023-04-02T07:14:26.228Z,4.95
2023-04-02T07:16:52.778Z,8.07
2023-04-02T07:19:20.450Z,4.88
2023-04-02T07:21:48.307Z,7.00
2023-04-02T07:24:15.464Z,7.18
2023-04-02T07:26:41.969Z,9.68
2023-04-02T07:29:09.068Z,8.27
2023-04-02T07:31:37.961Z,6.97
2023-04-02T07:34:05.409Z,4.50
2023-04-02T07:36:31.831Z,5.82
2023-04-02T07:38:58.544Z,11.80
2023-04-02T07:41:26.143Z,4.40
2023-04-02T07:43:52.495Z,5.63
2023-04-02T07:46:20.209Z,4.53
2023-04-02T07:48:47.210Z,8.35
2023-04-02T07:51:21.266Z,5.63
2023-04-02T07:53:55.673Z,5.55
2023-04-02T07:56:23.064Z,7.70
2023-04-02T07:58:49.602Z,3.95
2023-04-02T08:01:17.640Z,3.65
2023-04-02T08:03:44.247Z,5.60
2023-04-02T08:06:10.728Z,8.75
2023-04-02T08:08:37.260Z,4.07
2023-04-02T08:11:03.706Z,3.13
2023-04-02T08:13:31.947Z,6.65
2023-04-02T08:15:59.000Z,6.85
2023-04-02T08:18:25.629Z,5.70
2023-04-02T08:20:52.729Z,6.80
2023-04-02T08:23:19.137Z,5.97
2023-04-02T08:25:46.156Z,6.80
2023-04-02T08:28:12.900Z,7.95
2023-04-02T08:30:39.366Z,7.10
2023-04-02T08:33:06.458Z,4.60
2023-04-02T08:35:32.918Z,8.80
2023-04-02T08:37:59.644Z,6.18
2023-04-02T08:40:26.005Z,6.47
2023-04-02T08:43:08.452Z,5.30
2023-04-02T08:45:53.385Z,5.25
2023-04-02T08:48:20.249Z,8.80
2023-04-02T08:50:46.746Z,5.18
2023-04-02T08:53:19.541Z,6.90
2023-04-02T08:58:49.945Z,8.55
2023-04-02T09:01:22.988Z,3.97
2023-04-02T09:03:50.205Z,6.05
2023-04-02T09:06:18.061Z,8.73
2023-04-02T09:08:46.238Z,5.25
2023-04-02T09:11:17.262Z,7.88
2023-04-02T09:13:46.478Z,6.80
2023-04-02T09:16:14.782Z,5.50
2023-04-02T09:18:42.059Z,2.90
2023-04-02T09:21:31.950Z,2.28
2023-04-02T09:23:58.406Z,2.42
2023-04-02T09:26:27.127Z,3.28
2023-04-02T09:28:59.532Z,5.30
2023-04-02T09:31:37.594Z,4.05
2023-04-02T09:34:23.953Z,5.28
2023-04-02T09:36:50.496Z,7.57
2023-04-02T09:39:18.136Z,4.53
2023-04-02T09:41:50.257Z,7.03
2023-04-02T09:44:22.067Z,2.58
2023-04-02T09:46:59.495Z,2.00
2023-04-02T09:49:27.965Z,2.90
2023-04-02T09:52:09.479Z,2.55
2023-04-02T09:54:41.957Z,3.78
2023-04-02T09:57:18.520Z,6.78
2023-04-02T09:59:44.927Z,5.18
2023-04-02T10:02:24.014Z,3.08
2023-04-02T10:04:50.792Z,3.20
2023-04-02T10:07:32.330Z,2.95
2023-04-02T10:09:59.451Z,2.40
2023-04-02T10:12:26.769Z,5.60
2023-04-02T10:14:54.196Z,1.52
2023-04-02T10:17:39.672Z,7.63
2023-04-02T10:20:11.783Z,5.03
2023-04-02T10:22:38.451Z,5.80
2023-04-02T10:25:12.882Z,2.40
2023-04-02T10:28:06.956Z,1.67
2023-04-02T10:30:51.737Z,4.55
2023-04-02T10:33:21.488Z,1.42
2023-04-02T10:35:52.540Z,6.82
2023-04-02T10:38:21.736Z,3.15
2023-04-02T10:40:50.864Z,2.60
2023-04-02T10:43:30.788Z,4.05
2023-04-02T10:46:02.377Z,7.47
2023-04-02T10:48:52.465Z,2.60
2023-04-02T10:51:32.088Z,3.28
2023-04-02T10:54:19.484Z,3.53
2023-04-02T10:56:51.183Z,3.78
2023-04-02T10:59:21.094Z,3.60
2023-04-02T11:01:48.497Z,3.15
2023-04-02T11:04:20.493Z,4.45
2023-04-02T11:07:11.289Z,7.07
2023-04-02T11:09:42.574Z,5.63
2023-04-02T11:12:18.177Z,3.30
2023-04-02T11:14:44.518Z,1.80
2023-04-02T11:17:13.128Z,1.95
2023-04-02T11:19:39.503Z,4.15
2023-04-02T11:22:22.193Z,3.13
2023-04-02T11:24:49.693Z,4.30
2023-04-02T11:27:18.836Z,4.22
2023-04-02T11:29:49.830Z,5.45
2023-04-02T11:32:22.086Z,3.50
2023-04-02T11:34:56.399Z,2.53
2023-04-02T11:37:43.877Z,5.43
2023-04-02T11:40:16.040Z,4.63
2023-04-02T11:42:46.215Z,3.05
2023-04-02T11:45:21.975Z,6.72
2023-04-02T11:48:08.780Z,1.90
2023-04-02T11:50:36.976Z,2.15
2023-04-02T11:53:15.861Z,2.47
2023-04-02T11:55:43.257Z,2.95
2023-04-02T11:58:24.763Z,3.42
2023-04-02T12:01:11.723Z,5.03
2023-04-02T12:03:56.921Z,2.50
2023-04-02T12:06:39.907Z,3.58
2023-04-02T12:09:12.562Z,3.17
2023-04-02T12:11:40.015Z,2.83
2023-04-02T12:14:26.677Z,2.30
2023-04-02T12:16:53.301Z,3.70
2023-04-02T12:19:20.524Z,7.13
2023-04-02T12:21:49.946Z,5.30
2023-04-02T12:24:26.784Z,4.95
2023-04-02T12:27:15.020Z,2.55
2023-04-02T12:29:41.432Z,4.00
2023-04-02T12:32:21.202Z,1.75
2023-04-02T12:34:47.729Z,2.78
2023-04-02T12:37:21.520Z,4.57
2023-04-02T12:39:55.018Z,3.38
2023-04-02T12:42:34.760Z,3.28
2023-04-02T12:45:01.633Z,2.10
2023-04-02T12:47:28.403Z,2.05
2023-04-02T12:49:56.737Z,1.98
2023-04-02T12:52:28.425Z,2.10
2023-04-02T12:54:54.700Z,2.53
2023-04-02T12:57:22.976Z,3.70
2023-04-02T12:59:49.569Z,4.38
2023-04-02T13:02:18.680Z,3.85
2023-04-02T13:04:49.059Z,2.58
2023-04-02T13:07:19.953Z,7.25
2023-04-02T13:09:47.864Z,4.78
2023-04-02T13:12:23.421Z,3.20
2023-04-02T13:14:57.006Z,4.07
2023-04-02T13:17:38.456Z,2.50
2023-04-02T13:20:23.734Z,2.92
2023-04-02T13:22:50.318Z,3.25
2023-04-02T13:25:16.704Z,4.97
2023-04-02T13:27:43.138Z,3.35
2023-04-02T13:30:10.296Z,2.67
2023-04-02T13:32:37.242Z,2.85
2023-04-02T13:35:03.706Z,4.28
2023-04-02T13:37:30.497Z,1.73
2023-04-02T13:39:56.832Z,4.47
2023-04-02T13:42:23.150Z,2.60
2023-04-02T13:44:49.641Z,1.52
2023-04-02T13:47:16.042Z,2.53
2023-04-02T13:49:42.410Z,1.42
2023-04-02T13:52:13.516Z,9.10
2023-04-02T13:54:50.853Z,3.60
2023-04-02T13:57:17.682Z,3.28
2023-04-02T13:59:44.094Z,2.38
2023-04-02T14:02:17.952Z,1.98
2023-04-02T14:04:48.699Z,4.68
2023-04-02T14:07:46.276Z,2.25
2023-04-02T14:10:26.320Z,8.85
2023-04-02T14:13:01.671Z,3.97
2023-04-02T14:15:33.636Z,2.20
2023-04-02T14:18:18.603Z,2.47
2023-04-02T14:20:53.696Z,6.65
2023-04-02T14:23:35.127Z,2.95
2023-04-02T14:26:01.557Z,4.68
2023-04-02T14:28:28.118Z,2.20
2023-04-02T14:31:01.535Z,9.23
2023-04-02T14:33:27.910Z,3.72
2023-04-02T14:36:14.588Z,2.10
2023-04-02T14:38:56.907Z,3.38
2023-04-02T14:41:29.048Z,4.53
2023-04-02T14:43:58.664Z,1.92
2023-04-02T14:46:26.617Z,3.00
2023-04-02T14:49:01.925Z,1.83
2023-04-02T14:51:47.139Z,2.45
2023-04-02T14:54:32.490Z,1.52
2023-04-02T14:57:21.435Z,8.40
2023-04-02T14:59:47.949Z,3.95
2023-04-02T15:02:18.942Z,2.00
2023-04-02T15:04:48.085Z,4.20
2023-04-02T15:07:18.687Z,2.35
2023-04-02T15:09:47.632Z,2.25
2023-04-02T15:12:13.922Z,5.15
2023-04-02T15:14:47.795Z,2.03
2023-04-02T15:17:14.155Z,4.53
2023-04-02T15:19:40.664Z,1.92
2023-04-02T15:22:12.830Z,4.20
2023-04-02T15:24:43.202Z,2.67
2023-04-02T15:27:25.170Z,2.30
2023-04-02T15:30:14.762Z,2.67
2023-04-02T15:32:42.490Z,2.72
2023-04-02T15:35:16.492Z,4.20
2023-04-02T15:37:49.186Z,2.80
2023-04-02T15:42:49.062Z,4.18
2023-04-02T15:45:21.612Z,1.67
2023-04-02T15:47:48.007Z,5.40
2023-04-02T15:50:20.568Z,6.72
2023-04-02T15:52:56.989Z,2.17
2023-04-02T15:55:33.062Z,4.70
2023-04-02T15:57:59.349Z,1.90
2023-04-02T16:00:30.425Z,2.72
2023-04-02T16:03:17.151Z,4.68
2023-04-02T16:05:51.761Z,7.15
2023-04-02T16:08:39.823Z,3.20
2023-04-02T16:11:10.003Z,1.52
2023-04-02T16:13:37.448Z,3.58
2023-04-02T16:16:13.547Z,2.55
2023-04-02T16:18:59.153Z,6.20
2023-04-02T16:21:29.024Z,2.58
2023-04-02T16:23:55.421Z,6.32
2023-04-02T16:26:33.994Z,3.17
2023-04-02T16:29:09.543Z,3.95
2023-04-02T16:31:58.021Z,1.98
2023-04-02T16:34:30.640Z,2.00
2023-04-02T16:39:41.430Z,3.63
2023-04-02T16:42:19.391Z,3.25
2023-04-02T16:44:59.934Z,3.35
2023-04-02T16:47:49.750Z,1.80
2023-04-02T16:50:30.496Z,3.92
2023-04-02T16:53:05.224Z,1.25
2023-04-02T16:55:50.170Z,3.05
2023-04-02T16:58:39.859Z,3.50
2023-04-02T17:01:06.212Z,4.45
2023-04-02T17:03:41.537Z,1.92
2023-04-02T17:06:30.444Z,2.92
2023-04-02T17:09:13.167Z,1.83
2023-04-02T17:11:54.463Z,3.47
2023-04-02T17:14:25.843Z,2.45
2023-04-02T17:16:57.197Z,2.92
2023-04-02T17:19:25.793Z,4.13
2023-04-02T17:21:53.222Z,8.75
2023-04-02T17:24:19.588Z,2.83
2023-04-02T17:26:48.019Z,1.50
2023-04-02T17:29:19.867Z,3.35
2023-04-02T17:31:46.439Z,4.40
2023-04-02T17:34:13.848Z,3.35
2023-04-02T17:36:56.114Z,3.63
2023-04-02T17:39:25.654Z,2.53
2023-04-02T17:41:54.816Z,6.22
2023-04-02T17:44:27.384Z,2.42
2023-04-02T17:46:53.740Z,2.22
2023-04-02T17:49:23.015Z,2.88
2023-04-02T17:51:54.524Z,2.63
2023-04-02T17:54:30.876Z,4.97
2023-04-02T17:56:57.285Z,2.97
2023-04-02T17:59:42.597Z,3.65
2023-04-02T18:02:11.845Z,1.63
2023-04-02T18:04:38.345Z,4.63
2023-04-02T18:07:37.099Z,4.10
2023-04-02T18:10:11.054Z,2.28
2023-04-02T18:12:49.475Z,7.32
2023-04-02T18:15:27.519Z,3.63
2023-04-02T18:18:02.226Z,2.38
2023-04-02T18:20:47.500Z,4.85
2023-04-02T18:23:32.602Z,4.32
2023-04-02T18:26:19.284Z,2.38
2023-04-02T18:29:04.147Z,5.57
2023-04-02T18:31:36.051Z,2.13
2023-04-02T18:34:21.029Z,2.43
2023-04-02T18:36:54.635Z,5.80
2023-04-02T18:39:39.933Z,4.65
2023-04-02T18:42:28.328Z,4.80
2023-04-02T18:44:58.457Z,5.60
2023-04-02T18:47:24.882Z,4.90
2023-04-02T18:50:10.205Z,5.78
2023-04-02T18:52:37.473Z,4.22
2023-04-02T18:55:05.625Z,6.82
2023-04-02T18:57:33.952Z,5.50
2023-04-02T19:00:02.863Z,3.65
2023-04-02T19:02:39.041Z,3.30
2023-04-02T19:05:14.944Z,5.47
2023-04-02T19:07:43.125Z,6.53
2023-04-02T19:10:25.898Z,8.15
2023-04-02T19:12:52.300Z,3.38
2023-04-02T19:15:20.201Z,6.88
2023-04-02T19:17:57.814Z,2.67
2023-04-02T19:20:34.374Z,3.42
2023-04-02T19:23:11.387Z,2.00
2023-04-02T19:25:56.706Z,4.65
2023-04-02T19:28:52.647Z,3.83
2023-04-02T19:31:30.541Z,5.75
2023-04-02T19:34:13.980Z,5.13
2023-04-02T19:36:45.753Z,6.07
2023-04-02T19:39:30.662Z,2.90
2023-04-02T19:41:57.042Z,2.40
2023-04-02T19:44:23.443Z,3.35
2023-04-02T19:46:51.496Z,5.63
2023-04-02T19:49:22.619Z,2.47
2023-04-02T19:51:49.523Z,4.07
2023-04-02T19:54:15.908Z,3.08
2023-04-02T19:56:42.493Z,1.98
2023-04-02T19:59:17.676Z,3.17
2023-04-02T20:01:45.062Z,4.45
2023-04-02T20:04:11.489Z,2.10
2023-04-02T20:06:38.942Z,2.08
2023-04-02T20:09:05.338Z,3.30
2023-04-02T20:11:31.785Z,1.70
2023-04-02T20:13:58.143Z,3.30
2023-04-02T20:16:24.648Z,4.25
2023-04-02T20:18:51.337Z,2.60
2023-04-02T20:21:17.738Z,4.05
2023-04-02T20:23:44.202Z,6.22
2023-04-02T20:26:11.543Z,1.80
2023-04-02T20:28:37.967Z,3.17
2023-04-02T20:31:08.587Z,1.58
2023-04-02T20:33:35.194Z,2.05
2023-04-02T20:36:06.000Z,3.95
2023-04-02T20:38:33.218Z,1.75
2023-04-02T20:41:00.189Z,5.57
2023-04-02T20:43:28.314Z,2.80
2023-04-02T20:45:55.616Z,3.15
2023-04-02T20:48:23.092Z,1.70
2023-04-02T20:50:49.742Z,15.38
2023-04-02T20:53:16.531Z,1.40
2023-04-02T20:55:43.701Z,1.92
2023-04-02T20:58:10.020Z,2.25
2023-04-02T21:00:36.599Z,3.70
2023-04-02T21:03:05.786Z,4.63
2023-04-02T21:05:32.150Z,2.35
2023-04-02T21:07:58.789Z,2.20
2023-04-02T21:10:25.355Z,2.15
2023-04-02T21:12:53.717Z,1.58
2023-04-02T21:15:23.094Z,2.85
2023-04-02T21:17:49.516Z,1.85
2023-04-02T21:20:15.967Z,1.00
2023-04-02T21:22:42.378Z,3.05
2023-04-02T21:25:08.920Z,1.92
2023-04-02T21:27:35.348Z,2.63
2023-04-02T21:30:01.767Z,1.50
2023-04-02T21:32:28.100Z,3.50
2023-04-02T21:34:54.915Z,3.03
2023-04-02T21:37:21.375Z,1.60
2023-04-02T21:39:47.738Z,2.75
2023-04-02T21:42:15.107Z,1.67
2023-04-02T21:44:41.511Z,1.30
2023-04-02T21:47:07.950Z,1.58
2023-04-02T21:49:34.395Z,2.35
2023-04-02T21:52:00.732Z,6.00
2023-04-02T21:54:27.277Z,2.70
2023-04-02T21:56:53.798Z,2.08
2023-04-02T21:59:20.724Z,1.40
2023-04-02T22:01:50.717Z,1.75
2023-04-02T22:04:26.581Z,1.95
2023-04-02T22:06:53.430Z,1.73
2023-04-02T22:09:22.339Z,1.67
2023-04-02T22:11:50.655Z,1.83
2023-04-02T22:14:17.373Z,5.75
2023-04-02T22:16:43.840Z,2.80
2023-04-02T22:19:12.947Z,1.98
2023-04-02T22:21:39.482Z,2.63
2023-04-02T22:24:07.242Z,2.30
2023-04-02T22:26:34.138Z,1.58
2023-04-02T22:29:01.142Z,2.78
2023-04-02T22:31:28.676Z,2.78
2023-04-02T22:33:55.671Z,1.63
2023-04-02T22:36:22.966Z,1.90
2023-04-02T22:38:49.718Z,1.63
2023-04-02T22:41:17.558Z,1.70
2023-04-02T22:43:44.838Z,1.52
2023-04-02T22:46:12.040Z,2.97
2023-04-02T22:48:39.780Z,2.35
2023-04-02T22:51:07.671Z,3.03
2023-04-02T22:53:34.419Z,5.63
2023-04-02T22:56:03.702Z,1.83
2023-04-02T22:58:30.132Z,2.53
2023-04-02T23:00:56.505Z,6.10
2023-04-02T23:03:22.888Z,2.00
2023-04-02T23:06:02.860Z,2.00
2023-04-02T23:08:29.327Z,2.88
2023-04-02T23:11:08.987Z,1.75
2023-04-02T23:13:36.743Z,2.25
2023-04-02T23:16:04.083Z,2.05
2023-04-02T23:18:34.425Z,2.33
2023-04-02T23:21:01.004Z,2.20
2023-04-02T23:23:27.648Z,2.70
2023-04-02T23:26:13.613Z,2.65
2023-04-02T23:28:40.104Z,1.60
2023-04-02T23:31:07.679Z,3.08
2023-04-02T23:33:34.373Z,2.72
2023-04-02T23:36:00.839Z,1.40
2023-04-02T23:38:27.348Z,2.75
2023-04-02T23:40:53.832Z,1.92
2023-04-02T23:43:20.266Z,1.80
2023-04-02T23:45:47.906Z,1.73
2023-04-02T23:48:14.462Z,2.03
2023-04-02T23:50:41.212Z,3.05
2023-04-02T23:53:07.592Z,1.73
2023-04-02T23:55:33.960Z,3.25
2023-04-02T23:58:00.316Z,2.00
